Time;durP1;ratioP1;P1;durP2;ratioP2;P2;SDS_P1;SDS_P2;PMS_P1;PMS_P2;Temp;Humidity;BMP_temperature;BMP_pressure;BME280_temperature;BME280_humidity;BME280_pressure;Samples;Min_cycle;Max_cycle;Signal;HPM_P1;HPM_P2
2022/03/31 00:00:11;;;;;;;2.00;0.70;;;14.40;90.30;;;;;;4841012;29;20473;-59
2022/03/31 00:02:42;;;;;;;2.73;0.77;;;14.40;89.90;;;;;;4837264;29;20467;-59
2022/03/31 00:05:15;;;;;;;3.47;1.37;;;14.30;90.40;;;;;;4850942;29;20534;-59
2022/03/31 00:07:53;;;;;;;1.00;0.80;;;14.40;89.80;;;;;;4851056;29;20554;-59
2022/03/31 00:10:25;;;;;;;1.27;1.13;;;14.50;90.70;;;;;;4849937;29;20604;-59
2022/03/31 00:12:57;;;;;;;2.03;0.70;;;14.80;90.40;;;;;;4845871;29;20458;-60
2022/03/31 00:15:30;;;;;;;3.90;1.07;;;14.80;89.00;;;;;;4847027;29;20466;-59
2022/03/31 00:18:02;;;;;;;2.77;0.93;;;14.80;89.40;;;;;;4848512;29;20458;-59
2022/03/31 00:20:34;;;;;;;2.10;0.93;;;14.80;88.90;;;;;;4848097;29;20447;-59
2022/03/31 00:23:06;;;;;;;2.13;1.17;;;14.70;88.90;;;;;;4847673;29;20454;-60
2022/03/31 00:25:37;;;;;;;1.60;0.50;;;14.30;88.80;;;;;;4845639;29;20463;-58
2022/03/31 00:28:08;;;;;;;3.00;1.00;;;14.30;90.00;;;;;;4838515;29;20505;-59
2022/03/31 00:30:39;;;;;;;1.83;0.73;;;14.30;91.00;;;;;;4841503;29;20466;-58
2022/03/31 00:33:10;;;;;;;1.67;1.10;;;14.20;90.50;;;;;;4846911;29;20544;-59
2022/03/31 00:35:44;;;;;;;2.70;0.80;;;14.40;90.70;;;;;;4851146;29;20451;-59
2022/03/31 00:38:15;;;;;;;1.87;0.90;;;14.40;90.20;;;;;;4849928;29;20458;-60
2022/03/31 00:40:46;;;;;;;2.70;1.17;;;14.20;90.40;;;;;;4847794;29;20469;-60
2022/03/31 00:43:16;;;;;;;2.20;1.00;;;14.00;90.00;;;;;;4848579;29;20473;-59
2022/03/31 00:45:56;;;;;;;2.33;0.90;;;13.80;90.90;;;;;;4850101;29;20473;-59
2022/03/31 00:48:27;;;;;;;2.60;1.10;;;13.70;90.60;;;;;;4844095;29;20490;-59
2022/03/31 00:50:59;;;;;;;4.50;0.90;;;13.50;90.80;;;;;;4847404;29;20442;-60
2022/03/31 00:53:30;;;;;;;2.30;0.80;;;13.30;91.40;;;;;;4846898;29;20450;-59
2022/03/31 00:56:02;;;;;;;1.97;1.00;;;13.30;91.30;;;;;;4835249;29;20463;-60
2022/03/31 00:58:33;;;;;;;2.97;1.20;;;13.30;91.90;;;;;;4842710;29;20594;-59
2022/03/31 01:01:04;;;;;;;7.70;1.80;;;13.20;91.30;;;;;;4847154;29;20463;-60
2022/03/31 01:03:37;;;;;;;2.73;0.90;;;13.20;91.20;;;;;;4843994;29;20492;-62
2022/03/31 01:06:09;;;;;;;3.80;1.17;;;13.20;91.50;;;;;;4842759;29;20608;-61
2022/03/31 01:08:40;;;;;;;3.50;0.90;;;13.20;91.70;;;;;;4845046;29;20550;-62
2022/03/31 01:11:11;;;;;;;2.30;1.00;;;13.00;92.10;;;;;;4845511;29;20466;-62
2022/03/31 01:13:42;;;;;;;3.40;0.97;;;13.00;92.30;;;;;;4843184;29;20454;-62
2022/03/31 01:16:13;;;;;;;4.43;1.30;;;12.90;93.10;;;;;;4842458;29;20522;-64
2022/03/31 01:18:43;;;;;;;2.73;1.13;;;12.90;93.90;;;;;;4844252;29;20474;-62
2022/03/31 01:21:16;;;;;;;3.23;2.07;;;13.00;93.70;;;;;;4844920;29;20461;-64
2022/03/31 01:23:49;;;;;;;3.00;1.57;;;12.90;93.50;;;;;;4843456;29;20465;-63
2022/03/31 01:26:23;;;;;;;1.97;0.90;;;12.90;93.70;;;;;;4843233;29;20473;-62
2022/03/31 01:28:54;;;;;;;1.50;0.97;;;12.90;93.40;;;;;;4843831;29;20497;-62
2022/03/31 01:31:24;;;;;;;3.13;1.30;;;12.90;93.40;;;;;;4842736;29;20466;-63
2022/03/31 01:33:56;;;;;;;3.00;1.03;;;13.10;93.00;;;;;;4843168;29;20462;-60
2022/03/31 01:36:27;;;;;;;1.57;0.77;;;13.10;93.00;;;;;;4842955;29;20469;-61
2022/03/31 01:39:00;;;;;;;3.80;1.03;;;13.10;92.50;;;;;;4843417;29;20483;-61
2022/03/31 01:41:31;;;;;;;7.17;6.43;;;13.20;92.20;;;;;;4844211;29;20466;-59
2022/03/31 01:44:03;;;;;;;35.10;31.37;;;13.20;92.40;;;;;;4845271;29;20541;-60
2022/03/31 01:46:34;;;;;;;156.53;124.53;;;13.20;92.00;;;;;;4833191;29;20475;-60
2022/03/31 01:49:04;;;;;;;578.80;395.57;;;13.00;92.40;;;;;;4846821;29;20917;-60
2022/03/31 01:51:38;;;;;;;58.87;33.50;;;12.90;92.90;;;;;;4847813;29;20550;-60
2022/03/31 01:54:10;;;;;;;37.30;19.90;;;12.70;92.40;;;;;;4837204;29;20462;-60
2022/03/31 01:56:43;;;;;;;23.30;17.97;;;12.60;93.30;;;;;;4848786;29;21018;-60
2022/03/31 01:59:14;;;;;;;11.53;10.40;;;12.50;93.80;;;;;;4849879;29;20467;-60
2022/03/31 02:01:45;;;;;;;296.90;202.87;;;12.50;94.10;;;;;;4847449;29;20542;-59
2022/03/31 02:04:17;;;;;;;22.77;14.70;;;12.50;94.20;;;;;;4841780;29;20478;-60
2022/03/31 02:06:48;;;;;;;2.40;1.30;;;12.40;93.70;;;;;;4849268;29;20494;-61
2022/03/31 02:09:20;;;;;;;4.20;1.30;;;12.40;94.10;;;;;;4848181;29;20573;-60
2022/03/31 02:11:52;;;;;;;3.03;0.97;;;12.30;93.30;;;;;;4845948;29;20916;-59
2022/03/31 02:14:23;;;;;;;1.63;1.17;;;12.20;93.70;;;;;;4848139;29;20462;-59
2022/03/31 02:16:55;;;;;;;1.80;0.73;;;12.10;94.00;;;;;;4849691;29;20470;-60
2022/03/31 02:19:27;;;;;;;3.60;1.10;;;12.00;93.90;;;;;;4846658;29;20465;-58
2022/03/31 02:21:58;;;;;;;1.63;1.13;;;12.00;94.00;;;;;;4846576;29;20450;-60
2022/03/31 02:24:31;;;;;;;2.47;1.10;;;11.90;94.50;;;;;;4843220;29;20577;-59
2022/03/31 02:27:02;;;;;;;2.63;1.00;;;11.90;94.60;;;;;;4834810;29;20473;-57
2022/03/31 02:29:33;;;;;;;2.13;0.70;;;11.80;94.60;;;;;;4851043;29;20585;-58
2022/03/31 02:32:04;;;;;;;3.90;1.00;;;11.70;94.70;;;;;;4850410;29;20471;-59
2022/03/31 02:34:35;;;;;;;2.70;1.17;;;11.70;95.20;;;;;;4853247;29;20466;-58
2022/03/31 02:37:06;;;;;;;0.87;0.87;;;11.70;94.60;;;;;;4852343;29;20448;-59
2022/03/31 02:39:39;;;;;;;1.80;0.90;;;11.60;94.70;;;;;;4853647;29;20775;-59
2022/03/31 02:42:10;;;;;;;2.73;1.10;;;11.60;95.30;;;;;;4845592;29;20489;-59
2022/03/31 02:44:40;;;;;;;1.90;0.80;;;11.50;95.80;;;;;;4844804;29;20462;-58
2022/03/31 02:47:11;;;;;;;2.50;1.10;;;11.50;94.90;;;;;;4850506;29;20489;-59
2022/03/31 02:49:43;;;;;;;3.33;1.40;;;11.40;95.30;;;;;;4848218;29;20512;-59
2022/03/31 02:52:14;;;;;;;1.60;0.93;;;11.40;95.20;;;;;;4852207;29;20473;-59
2022/03/31 02:57:34;;;;;;;3.47;1.43;;;11.20;95.50;;;;;;4849882;29;20473;-59
2022/03/31 03:00:07;;;;;;;2.83;1.00;;;11.10;96.10;;;;;;4850237;29;20475;-59
2022/03/31 03:02:38;;;;;;;3.57;1.07;;;11.10;96.10;;;;;;4852521;29;20476;-59
2022/03/31 03:05:10;;;;;;;1.43;0.80;;;11.10;96.80;;;;;;4851809;29;20498;-57
2022/03/31 03:07:41;;;;;;;1.53;0.83;;;11.00;96.70;;;;;;4849855;29;20463;-59
2022/03/31 03:10:14;;;;;;;1.00;0.90;;;11.00;96.20;;;;;;4853668;29;20519;-58
2022/03/31 03:12:45;;;;;;;2.40;1.00;;;10.90;96.30;;;;;;4840100;29;20463;-59
2022/03/31 03:15:17;;;;;;;2.30;1.60;;;10.90;97.10;;;;;;4842630;29;20461;-58
2022/03/31 03:17:49;;;;;;;3.63;1.10;;;10.80;97.10;;;;;;4838212;29;20527;-59
2022/03/31 03:20:20;;;;;;;1.07;0.90;;;10.70;97.90;;;;;;4850644;29;20458;-60
2022/03/31 03:22:52;;;;;;;1.47;0.87;;;10.60;99.00;;;;;;4844845;29;20446;-58
2022/03/31 03:25:24;;;;;;;1.90;1.53;;;10.60;99.90;;;;;;4845196;29;20450;-60
2022/03/31 03:27:55;;;;;;;4.33;1.60;;;10.60;99.90;;;;;;4846096;29;20458;-60
2022/03/31 03:30:26;;;;;;;1.40;1.17;;;10.50;99.90;;;;;;4844888;29;20498;-61
2022/03/31 03:32:57;;;;;;;2.47;1.23;;;10.40;99.90;;;;;;4844183;29;20459;-59
2022/03/31 03:35:28;;;;;;;2.50;1.43;;;10.30;99.90;;;;;;4844006;29;20466;-59
2022/03/31 03:37:59;;;;;;;3.90;1.50;;;10.30;99.90;;;;;;4845286;29;21215;-59
2022/03/31 03:40:31;;;;;;;4.83;2.33;;;10.20;99.90;;;;;;4844558;29;20463;-59
2022/03/31 03:43:02;;;;;;;2.42;1.42;;;10.10;99.90;;;;;;4843630;29;20455;-59
2022/03/31 03:45:34;;;;;;;4.67;1.40;;;10.10;99.90;;;;;;4843098;29;20226;-59
2022/03/31 03:48:05;;;;;;;5.30;1.85;;;10.00;99.90;;;;;;4845458;29;20470;-58
2022/03/31 03:50:38;;;;;;;1.55;1.13;;;10.00;99.90;;;;;;4845902;29;20279;-59
2022/03/31 03:53:09;;;;;;;1.95;1.10;;;9.90;99.90;;;;;;4846623;29;20197;-59
2022/03/31 03:55:41;;;;;;;3.50;1.42;;;9.90;99.90;;;;;;4843695;29;20287;-58
2022/03/31 03:58:12;;;;;;;1.57;1.23;;;9.80;99.90;;;;;;4847954;29;20631;-59
2022/03/31 04:00:43;;;;;;;1.87;1.43;;;9.80;99.90;;;;;;4839188;29;20485;-59
2022/03/31 04:03:14;;;;;;;3.92;1.25;;;9.70;99.90;;;;;;4846729;29;20520;-59
2022/03/31 04:05:45;;;;;;;2.30;1.15;;;9.70;99.90;;;;;;4840555;29;20300;-60
2022/03/31 04:08:17;;;;;;;2.33;1.63;;;9.60;99.90;;;;;;4848690;29;20212;-60
2022/03/31 04:10:49;;;;;;;4.07;1.25;;;9.50;99.90;;;;;;4849688;29;20637;-59
2022/03/31 04:13:21;;;;;;;4.65;1.80;;;9.50;99.90;;;;;;4848932;29;20221;-59
2022/03/31 04:15:52;;;;;;;3.72;1.92;;;9.50;99.90;;;;;;4842070;29;20218;-59
2022/03/31 04:18:23;;;;;;;2.70;1.25;;;9.50;99.90;;;;;;4836329;29;20205;-59
2022/03/31 04:20:55;;;;;;;3.25;1.65;;;9.40;99.90;;;;;;4844539;29;20194;-59
2022/03/31 04:23:26;;;;;;;4.30;1.58;;;9.30;99.90;;;;;;4839261;29;20228;-59
2022/03/31 04:25:58;;;;;;;2.95;1.20;;;9.30;99.90;;;;;;4847724;29;20260;-59
2022/03/31 04:28:29;;;;;;;2.55;1.10;;;9.20;99.90;;;;;;4845303;29;20214;-59
2022/03/31 04:31:00;;;;;;;3.67;1.50;;;9.20;99.90;;;;;;4848272;29;20241;-59
2022/03/31 04:33:31;;;;;;;4.10;1.70;;;9.20;99.90;;;;;;4837108;29;20643;-59
2022/03/31 04:36:02;;;;;;;2.15;1.25;;;9.10;99.90;;;;;;4842598;29;20323;-59
2022/03/31 04:38:33;;;;;;;2.35;1.20;;;9.10;99.90;;;;;;4842800;29;20874;-59
2022/03/31 04:41:05;;;;;;;2.47;1.30;;;9.10;99.90;;;;;;4845602;29;20209;-59
2022/03/31 04:43:36;;;;;;;3.20;2.10;;;9.10;99.90;;;;;;4847188;29;20228;-60
2022/03/31 04:46:07;;;;;;;2.50;0.95;;;9.10;99.90;;;;;;4843758;29;20241;-59
2022/03/31 04:48:39;;;;;;;2.90;1.40;;;9.00;99.90;;;;;;4833649;29;20643;-60
2022/03/31 04:51:10;;;;;;;2.90;1.77;;;9.10;99.90;;;;;;4848146;29;20229;-61
2022/03/31 04:53:41;;;;;;;3.60;1.25;;;9.10;99.90;;;;;;4849651;29;20231;-59
2022/03/31 04:56:14;;;;;;;4.05;1.30;;;9.10;99.90;;;;;;4840521;29;20213;-59
2022/03/31 04:58:45;;;;;;;1.65;1.27;;;9.10;99.90;;;;;;4848752;29;20224;-59
2022/03/31 05:01:16;;;;;;;3.88;1.40;;;9.10;99.90;;;;;;4842612;29;20228;-59
2022/03/31 05:03:54;;;;;;;2.13;1.60;;;9.00;99.90;;;;;;4841876;29;20221;-58
2022/03/31 05:06:25;;;;;;;3.95;1.80;;;8.90;99.90;;;;;;4846123;29;20279;-59
2022/03/31 05:08:55;;;;;;;2.80;1.48;;;8.90;99.90;;;;;;4843538;29;20225;-59
2022/03/31 05:11:28;;;;;;;2.28;1.42;;;8.80;99.90;;;;;;4849385;29;20236;-59
2022/03/31 05:13:58;;;;;;;3.50;1.65;;;8.80;99.90;;;;;;4845555;29;20300;-59
2022/03/31 05:16:31;;;;;;;2.88;1.80;;;8.70;99.90;;;;;;4848171;29;20233;-59
2022/03/31 05:19:02;;;;;;;2.25;1.50;;;8.60;99.90;;;;;;4840502;29;20243;-58
2022/03/31 05:21:33;;;;;;;2.20;1.30;;;8.60;99.90;;;;;;4839650;29;20206;-59
2022/03/31 05:24:04;;;;;;;2.85;1.50;;;8.50;99.90;;;;;;4835871;29;20272;-58
2022/03/31 05:26:37;;;;;;;3.95;2.08;;;8.50;99.90;;;;;;4844438;29;20217;-59
2022/03/31 05:29:08;;;;;;;2.80;1.67;;;8.50;99.90;;;;;;4843997;29;20206;-58
2022/03/31 05:31:38;;;;;;;4.05;2.25;;;8.50;99.90;;;;;;4842437;29;20329;-59
2022/03/31 05:34:09;;;;;;;2.10;1.60;;;8.40;99.90;;;;;;4849946;29;20277;-58
2022/03/31 05:36:40;;;;;;;2.78;1.65;;;8.40;99.90;;;;;;4837985;29;20210;-58
2022/03/31 05:39:14;;;;;;;1.63;1.48;;;8.40;99.90;;;;;;4836231;29;20247;-59
2022/03/31 05:41:46;;;;;;;3.75;1.77;;;8.40;99.90;;;;;;4849107;29;20691;-58
2022/03/31 05:44:18;;;;;;;5.05;2.03;;;8.30;99.90;;;;;;4848623;29;20571;-58
2022/03/31 05:46:49;;;;;;;5.38;1.60;;;8.30;99.90;;;;;;4850149;29;20221;-59
2022/03/31 05:49:20;;;;;;;4.40;1.90;;;8.20;99.90;;;;;;4841100;29;20213;-59
2022/03/31 05:51:50;;;;;;;2.42;2.05;;;8.20;99.90;;;;;;4839748;29;20244;-59
2022/03/31 05:54:21;;;;;;;3.08;1.50;;;8.10;99.90;;;;;;4841476;29;20202;-59
2022/03/31 05:56:54;;;;;;;6.97;2.08;;;8.10;99.90;;;;;;4843249;29;20206;-59
2022/03/31 05:59:27;;;;;;;5.40;1.90;;;8.00;99.90;;;;;;4842228;29;20269;-59
2022/03/31 06:01:57;;;;;;;3.67;1.30;;;8.00;99.90;;;;;;4851742;29;20213;-59
2022/03/31 06:04:28;;;;;;;2.63;1.70;;;7.90;99.90;;;;;;4853022;29;20219;-59
2022/03/31 06:07:08;;;;;;;2.05;1.38;;;7.80;99.90;;;;;;4853839;29;20251;-58
2022/03/31 06:09:39;;;;;;;2.60;1.60;;;7.80;99.90;;;;;;4836653;29;20234;-59
2022/03/31 06:12:14;;;;;;;4.22;1.80;;;7.80;99.90;;;;;;4844788;29;20233;-59
2022/03/31 06:14:45;;;;;;;6.60;1.55;;;7.80;99.90;;;;;;4843633;29;20312;-58
2022/03/31 06:17:17;;;;;;;4.80;1.55;;;7.70;99.90;;;;;;4853361;29;20270;-59
2022/03/31 06:19:48;;;;;;;2.28;1.95;;;7.60;99.90;;;;;;4851829;29;20205;-59
2022/03/31 06:22:18;;;;;;;3.72;1.83;;;7.50;99.90;;;;;;4848479;29;20202;-58
2022/03/31 06:24:52;;;;;;;4.18;1.73;;;7.40;99.90;;;;;;4850053;29;20210;-58
2022/03/31 06:27:28;;;;;;;4.32;2.00;;;7.40;99.90;;;;;;4845260;29;20217;-58
2022/03/31 06:29:58;;;;;;;3.65;2.25;;;7.40;99.90;;;;;;4843949;29;20230;-59
2022/03/31 06:32:29;;;;;;;3.55;1.70;;;7.40;99.90;;;;;;4851005;29;20225;-58
2022/03/31 06:35:03;;;;;;;2.45;1.88;;;7.40;99.90;;;;;;4846730;29;20205;-57
2022/03/31 06:37:35;;;;;;;9.23;2.30;;;7.30;99.90;;;;;;4848417;29;20312;-58
2022/03/31 06:40:07;;;;;;;4.20;2.17;;;7.30;99.90;;;;;;4851695;29;20205;-58
2022/03/31 06:42:41;;;;;;;4.20;2.08;;;7.40;99.90;;;;;;4840204;29;20213;-58
2022/03/31 06:45:16;;;;;;;2.80;1.67;;;7.40;99.90;;;;;;4849061;29;20209;-58
2022/03/31 06:47:57;;;;;;;3.22;1.73;;;7.40;99.90;;;;;;4836430;29;20316;-58
2022/03/31 06:50:32;;;;;;;1.70;1.60;;;7.40;99.90;;;;;;4849132;29;20247;-58
2022/03/31 06:53:04;;;;;;;5.82;1.85;;;7.30;99.90;;;;;;4839656;29;20221;-59
2022/03/31 06:55:35;;;;;;;2.25;1.70;;;7.30;99.90;;;;;;4853735;29;20257;-58
2022/03/31 06:58:08;;;;;;;4.65;2.38;;;7.30;99.90;;;;;;4848420;29;20229;-58
2022/03/31 07:00:39;;;;;;;4.57;2.25;;;7.20;99.90;;;;;;4840237;29;20213;-59
2022/03/31 07:03:10;;;;;;;3.10;1.85;;;7.20;99.90;;;;;;4848380;29;20234;-58
2022/03/31 07:05:41;;;;;;;4.22;2.58;;;7.20;99.90;;;;;;4838441;29;20297;-58
2022/03/31 07:08:12;;;;;;;3.88;2.40;;;7.20;99.90;;;;;;4850688;29;20205;-58
2022/03/31 07:10:43;;;;;;;4.25;2.10;;;7.20;99.90;;;;;;4837262;29;20206;-58
2022/03/31 07:13:15;;;;;;;3.97;2.25;;;7.10;99.90;;;;;;4840144;29;20291;-58
2022/03/31 07:15:46;;;;;;;3.78;1.92;;;7.10;99.90;;;;;;4852779;29;20212;-58
2022/03/31 07:18:19;;;;;;;8.13;2.58;;;7.10;99.90;;;;;;4839368;29;20604;-59
2022/03/31 07:20:50;;;;;;;3.60;2.33;;;7.10;99.90;;;;;;4836434;29;20214;-58
2022/03/31 07:23:23;;;;;;;5.28;2.22;;;7.10;99.90;;;;;;4837795;29;20193;-58
2022/03/31 07:25:55;;;;;;;2.72;1.83;;;7.10;99.90;;;;;;4852791;29;20200;-58
2022/03/31 07:28:27;;;;;;;6.40;2.47;;;7.00;99.90;;;;;;4851591;29;20283;-58
2022/03/31 07:30:58;;;;;;;1.90;1.63;;;7.00;99.90;;;;;;4840815;29;20210;-58
2022/03/31 07:33:29;;;;;;;2.63;2.33;;;6.90;99.90;;;;;;4852607;29;20216;-58
2022/03/31 07:36:00;;;;;;;2.25;2.05;;;6.90;99.90;;;;;;4852131;29;20215;-58
2022/03/31 07:38:31;;;;;;;6.80;3.25;;;6.90;99.90;;;;;;4848867;29;20201;-58
2022/03/31 07:41:01;;;;;;;4.07;2.58;;;6.90;99.90;;;;;;4845430;29;20344;-58
2022/03/31 07:43:34;;;;;;;4.20;2.20;;;6.90;99.90;;;;;;4843952;29;20220;-58
2022/03/31 07:46:05;;;;;;;2.42;2.17;;;6.90;99.90;;;;;;4838025;29;20206;-59
2022/03/31 07:48:36;;;;;;;4.90;2.22;;;6.90;99.90;;;;;;4847691;29;20224;-58
2022/03/31 07:51:08;;;;;;;3.33;3.03;;;6.90;99.90;;;;;;4836874;29;20201;-58
2022/03/31 07:53:38;;;;;;;4.82;2.05;;;6.80;99.90;;;;;;4845363;29;20616;-59
2022/03/31 07:56:10;;;;;;;4.63;2.25;;;6.70;99.90;;;;;;4838297;29;20214;-58
2022/03/31 07:58:42;;;;;;;4.20;2.03;;;6.70;99.90;;;;;;4849981;29;20217;-58
2022/03/31 08:01:15;;;;;;;1.98;1.70;;;6.80;99.90;;;;;;4849563;29;20212;-58
2022/03/31 08:03:46;;;;;;;3.40;1.52;;;6.70;99.90;;;;;;4835491;29;20222;-57
2022/03/31 08:06:17;;;;;;;3.88;1.83;;;6.80;99.90;;;;;;4849178;29;20332;-59
2022/03/31 08:08:48;;;;;;;6.45;2.20;;;6.80;99.90;;;;;;4847874;29;20197;-58
2022/03/31 08:11:19;;;;;;;3.08;1.90;;;6.70;99.90;;;;;;4836919;29;20224;-58
2022/03/31 08:13:51;;;;;;;4.78;2.08;;;6.70;99.90;;;;;;4833505;29;20210;-58
2022/03/31 08:16:22;;;;;;;4.13;2.20;;;6.60;99.90;;;;;;4846287;29;20206;-58
2022/03/31 08:18:54;;;;;;;5.70;2.08;;;6.60;99.90;;;;;;4839635;29;20308;-58
2022/03/31 08:21:25;;;;;;;3.25;2.05;;;6.60;99.90;;;;;;4844986;29;20201;-59
2022/03/31 08:23:56;;;;;;;3.22;2.17;;;6.60;99.90;;;;;;4847454;29;20201;-58
2022/03/31 08:26:27;;;;;;;4.95;2.53;;;6.50;99.90;;;;;;4843443;29;20233;-57
2022/03/31 08:28:59;;;;;;;5.40;1.92;;;6.50;99.90;;;;;;4842730;29;20258;-58
2022/03/31 08:31:30;;;;;;;4.32;1.70;;;6.50;99.90;;;;;;4834532;29;20221;-58
2022/03/31 08:34:01;;;;;;;4.97;1.95;;;6.50;99.90;;;;;;4839178;29;20214;-59
2022/03/31 08:36:32;;;;;;;3.47;2.20;;;6.60;99.90;;;;;;4844387;29;20197;-58
2022/03/31 08:39:04;;;;;;;2.88;2.00;;;6.60;99.90;;;;;;4851436;29;20210;-58
2022/03/31 08:41:35;;;;;;;5.28;2.25;;;6.60;99.90;;;;;;4847067;29;20219;-58
2022/03/31 08:44:08;;;;;;;4.75;3.40;;;6.70;99.90;;;;;;4850904;29;20214;-58
2022/03/31 08:46:39;;;;;;;4.20;2.40;;;6.80;99.90;;;;;;4835157;29;20210;-59
2022/03/31 08:49:11;;;;;;;6.35;3.17;;;6.90;99.90;;;;;;4851262;29;20213;-58
2022/03/31 08:51:45;;;;;;;2.72;2.05;;;6.90;99.90;;;;;;4848082;29;20205;-60
2022/03/31 08:54:16;;;;;;;3.78;2.33;;;7.00;99.90;;;;;;4850984;29;20209;-58
2022/03/31 08:56:47;;;;;;;5.18;3.80;;;7.10;99.90;;;;;;4850214;29;20217;-58
2022/03/31 08:59:39;;;;;;;4.18;2.17;;;7.10;99.90;;;;;;4835295;29;20205;-58
2022/03/31 09:02:22;;;;;;;2.85;2.22;;;7.10;99.90;;;;;;4839751;29;20205;-58
2022/03/31 09:05:03;;;;;;;4.15;2.47;;;7.10;99.90;;;;;;4842585;29;20213;-59
2022/03/31 09:07:34;;;;;;;4.63;2.53;;;7.10;99.90;;;;;;4843776;29;20228;-59
2022/03/31 09:10:05;;;;;;;2.40;2.17;;;7.10;99.90;;;;;;4850222;29;20201;-58
2022/03/31 09:12:39;;;;;;;4.82;2.17;;;7.20;99.90;;;;;;4847616;29;20305;-57
2022/03/31 09:15:32;;;;;;;3.35;2.60;;;7.20;99.90;;;;;;4840623;29;20269;-58
2022/03/31 09:18:04;;;;;;;4.53;2.30;;;7.20;99.90;;;;;;4850018;29;20216;-58
2022/03/31 09:20:43;;;;;;;7.25;2.80;;;7.20;99.90;;;;;;4846930;29;20221;-58
2022/03/31 09:23:19;;;;;;;5.85;3.00;;;7.30;99.90;;;;;;4834029;29;20220;-58
2022/03/31 09:25:51;;;;;;;5.68;2.30;;;7.30;99.90;;;;;;4841161;29;20204;-58
2022/03/31 09:28:26;;;;;;;3.13;2.20;;;7.30;99.90;;;;;;4842907;29;20213;-58
2022/03/31 09:30:59;;;;;;;5.47;2.10;;;7.40;99.90;;;;;;4834578;29;20210;-59
2022/03/31 09:33:32;;;;;;;3.90;2.05;;;7.50;99.90;;;;;;4848669;29;20272;-59
2022/03/31 09:36:05;;;;;;;6.28;3.00;;;7.50;99.90;;;;;;4849324;29;20319;-58
2022/03/31 09:38:37;;;;;;;4.70;2.40;;;7.50;99.90;;;;;;4846579;29;20645;-57
2022/03/31 09:41:19;;;;;;;2.67;2.28;;;7.60;99.90;;;;;;4848987;29;20220;-57
2022/03/31 09:43:51;;;;;;;5.80;2.47;;;7.60;99.90;;;;;;4835618;29;20586;-58
2022/03/31 09:46:27;;;;;;;3.83;3.20;;;7.60;99.90;;;;;;4841536;29;20193;-58
2022/03/31 09:49:11;;;;;;;4.60;2.40;;;7.70;99.90;;;;;;4850766;29;20193;-57
2022/03/31 09:51:48;;;;;;;5.03;2.65;;;7.60;99.90;;;;;;4839025;29;20209;-58
2022/03/31 09:54:20;;;;;;;6.13;2.90;;;7.60;99.90;;;;;;4851020;29;20262;-58
2022/03/31 09:56:51;;;;;;;4.03;2.60;;;7.60;99.90;;;;;;4848822;29;20205;-58
2022/03/31 09:59:22;;;;;;;6.65;3.03;;;7.60;99.90;;;;;;4851369;29;20213;-58
2022/03/31 10:01:56;;;;;;;3.15;2.55;;;7.70;99.90;;;;;;4835688;29;20204;-59
2022/03/31 10:04:28;;;;;;;6.90;2.90;;;7.80;99.90;;;;;;4838876;29;20292;-58
2022/03/31 10:07:00;;;;;;;2.83;2.53;;;7.70;99.90;;;;;;4849548;29;20248;-58
2022/03/31 10:09:32;;;;;;;2.83;2.20;;;7.80;99.90;;;;;;4850546;29;20206;-58
2022/03/31 10:12:08;;;;;;;7.30;2.65;;;7.80;99.90;;;;;;4835093;29;20201;-58
2022/03/31 10:14:48;;;;;;;4.53;2.53;;;7.60;99.90;;;;;;4835816;29;20217;-58
2022/03/31 10:17:26;;;;;;;4.03;2.53;;;7.60;99.90;;;;;;4834433;29;20210;-59
2022/03/31 10:20:07;;;;;;;6.97;2.67;;;7.60;99.90;;;;;;4841470;29;20213;-61
2022/03/31 10:25:37;;;;;;;3.53;1.60;;;7.80;99.90;;;;;;4843145;29;20274;-58
2022/03/31 10:28:13;;;;;;;3.03;2.00;;;7.90;99.90;;;;;;4838500;29;20769;-58
2022/03/31 10:30:56;;;;;;;5.15;1.75;;;7.90;99.90;;;;;;4848234;29;20622;-58
2022/03/31 10:33:34;;;;;;;4.15;1.40;;;8.00;99.90;;;;;;4835023;29;20237;-58
2022/03/31 10:36:09;;;;;;;4.30;1.45;;;8.00;99.90;;;;;;4836733;29;20201;-59
2022/03/31 10:38:52;;;;;;;6.68;2.25;;;8.00;99.90;;;;;;4848906;29;20212;-58
2022/03/31 10:41:31;;;;;;;5.05;1.80;;;8.10;99.90;;;;;;4845121;29;20951;-59
2022/03/31 10:44:05;;;;;;;3.22;2.45;;;8.10;99.90;;;;;;4849272;29;20201;-58
2022/03/31 10:46:36;;;;;;;3.35;2.70;;;8.10;99.90;;;;;;4853097;29;20216;-58
2022/03/31 10:49:12;;;;;;;6.13;2.83;;;8.10;99.90;;;;;;4851540;29;20209;-58
2022/03/31 10:51:45;;;;;;;3.03;1.88;;;8.10;99.90;;;;;;4835163;29;20233;-58
2022/03/31 10:54:27;;;;;;;3.80;1.65;;;8.10;99.90;;;;;;4851498;29;20252;-58
2022/03/31 10:57:06;;;;;;;4.32;2.20;;;8.10;99.90;;;;;;4848927;29;20212;-58
2022/03/31 10:59:38;;;;;;;4.88;2.05;;;8.00;99.90;;;;;;4839505;29;20194;-58
2022/03/31 11:02:14;;;;;;;4.30;1.70;;;8.00;99.90;;;;;;4836722;29;20206;-58
2022/03/31 11:04:49;;;;;;;2.90;1.90;;;8.00;99.90;;;;;;4839777;29;20212;-58
2022/03/31 11:07:22;;;;;;;3.67;1.40;;;8.00;99.90;;;;;;4845481;29;20219;-58
2022/03/31 11:10:02;;;;;;;3.08;1.58;;;8.10;99.90;;;;;;4836634;29;20218;-58
2022/03/31 11:12:33;;;;;;;7.80;1.60;;;8.20;99.90;;;;;;4839643;29;20543;-58
2022/03/31 11:15:07;;;;;;;4.80;2.35;;;8.20;99.90;;;;;;4837558;29;20341;-58
2022/03/31 11:17:39;;;;;;;2.78;1.65;;;8.10;99.90;;;;;;4839104;29;20300;-58
2022/03/31 11:20:22;;;;;;;3.63;1.83;;;8.10;99.90;;;;;;4851573;29;20209;-58
2022/03/31 11:22:54;;;;;;;3.33;1.80;;;8.10;99.90;;;;;;4851534;29;20209;-57
2022/03/31 11:25:25;;;;;;;3.70;1.95;;;8.20;99.90;;;;;;4842081;29;20220;-58
2022/03/31 11:27:58;;;;;;;1.70;1.40;;;8.20;99.90;;;;;;4846663;29;20217;-57
2022/03/31 11:30:33;;;;;;;3.22;1.70;;;8.20;99.90;;;;;;4842938;29;20210;-58
2022/03/31 11:33:04;;;;;;;6.93;2.55;;;8.20;99.90;;;;;;4847011;29;20213;-60
2022/03/31 11:35:37;;;;;;;2.83;1.85;;;8.10;99.90;;;;;;4845183;29;20206;-58
2022/03/31 11:38:12;;;;;;;3.63;1.63;;;8.10;99.90;;;;;;4848625;29;20319;-58
2022/03/31 11:40:44;;;;;;;1.85;1.25;;;8.10;99.90;;;;;;4850330;29;20227;-58
2022/03/31 11:43:18;;;;;;;1.90;1.63;;;8.10;99.90;;;;;;4849862;29;20210;-58
2022/03/31 11:45:50;;;;;;;3.90;1.60;;;8.10;99.90;;;;;;4843746;29;20226;-58
2022/03/31 11:48:34;;;;;;;5.65;2.30;;;8.10;99.90;;;;;;4847026;29;20276;-58
2022/03/31 11:51:07;;;;;;;4.30;1.80;;;8.10;99.90;;;;;;4838241;29;20212;-58
2022/03/31 11:53:42;;;;;;;2.25;2.05;;;8.00;99.90;;;;;;4850498;29;20237;-58
2022/03/31 11:56:16;;;;;;;3.35;1.77;;;8.10;99.90;;;;;;4851738;29;20221;-58
2022/03/31 11:58:48;;;;;;;3.08;1.65;;;8.10;99.90;;;;;;4844531;29;20220;-57
2022/03/31 12:01:22;;;;;;;2.00;1.58;;;8.20;99.90;;;;;;4846964;29;20216;-58
2022/03/31 12:03:53;;;;;;;2.15;1.52;;;8.20;99.90;;;;;;4837037;29;20214;-58
2022/03/31 12:06:26;;;;;;;2.20;1.70;;;8.10;99.90;;;;;;4837272;29;20269;-58
2022/03/31 12:08:57;;;;;;;5.75;1.98;;;8.20;99.90;;;;;;4852010;29;20213;-58
2022/03/31 12:11:29;;;;;;;1.90;1.20;;;8.20;99.90;;;;;;4849289;29;20210;-58
2022/03/31 12:14:01;;;;;;;3.65;1.40;;;8.20;99.90;;;;;;4847970;29;20231;-59
2022/03/31 12:16:45;;;;;;;4.72;1.50;;;8.30;99.90;;;;;;4851523;29;20217;-57
2022/03/31 12:19:16;;;;;;;3.38;1.10;;;8.40;99.90;;;;;;4834816;29;20757;-59
2022/03/31 12:21:52;;;;;;;4.50;1.95;;;8.40;99.90;;;;;;4850158;29;20235;-59
2022/03/31 12:24:23;;;;;;;4.00;1.38;;;8.40;99.90;;;;;;4847100;29;20205;-56
2022/03/31 12:26:55;;;;;;;2.95;1.38;;;8.30;99.90;;;;;;4842763;29;20209;-59
2022/03/31 12:29:27;;;;;;;6.13;1.40;;;8.30;99.90;;;;;;4849040;29;20225;-58
2022/03/31 12:32:02;;;;;;;5.45;1.60;;;8.20;99.90;;;;;;4845508;29;20554;-58
2022/03/31 12:34:34;;;;;;;3.60;1.80;;;8.20;99.90;;;;;;4846072;29;20229;-56
2022/03/31 12:37:08;;;;;;;5.65;2.10;;;8.10;99.90;;;;;;4847398;29;20206;-57
2022/03/31 12:39:43;;;;;;;4.53;1.80;;;8.10;99.90;;;;;;4837267;29;20205;-56
2022/03/31 12:42:15;;;;;;;4.18;1.63;;;8.30;99.90;;;;;;4836545;29;20205;-59
2022/03/31 12:44:45;;;;;;;5.20;2.00;;;8.20;99.90;;;;;;4844271;29;20220;-58
2022/03/31 12:47:22;;;;;;;3.60;1.80;;;8.20;99.90;;;;;;4844988;29;20224;-59
2022/03/31 12:49:53;;;;;;;4.63;2.42;;;8.20;99.90;;;;;;4848087;29;20328;-58
2022/03/31 12:52:26;;;;;;;6.18;2.38;;;8.10;99.90;;;;;;4833725;29;20214;-58
2022/03/31 12:55:00;;;;;;;3.63;2.35;;;8.00;99.90;;;;;;4842806;29;20236;-58
2022/03/31 12:57:31;;;;;;;2.30;2.00;;;8.10;99.90;;;;;;4850800;29;20261;-59
2022/03/31 13:00:05;;;;;;;3.67;2.50;;;8.10;99.90;;;;;;4850781;29;20213;-58
2022/03/31 13:02:44;;;;;;;4.80;2.17;;;8.00;99.90;;;;;;4835623;29;20586;-57
2022/03/31 13:05:21;;;;;;;3.55;1.95;;;8.00;99.90;;;;;;4847408;29;20549;-57
2022/03/31 13:07:54;;;;;;;3.65;2.33;;;8.00;99.90;;;;;;4850277;29;20220;-58
2022/03/31 13:10:26;;;;;;;3.78;2.28;;;8.00;99.90;;;;;;4847970;29;20209;-58
2022/03/31 13:12:57;;;;;;;4.05;2.28;;;7.90;99.90;;;;;;4850798;29;20213;-59
2022/03/31 13:15:28;;;;;;;11.27;3.92;;;7.90;99.90;;;;;;4836373;29;20233;-57
2022/03/31 13:17:59;;;;;;;6.97;2.10;;;7.90;99.90;;;;;;4836947;29;20213;-60
2022/03/31 13:20:30;;;;;;;3.92;2.00;;;7.90;99.90;;;;;;4851309;29;20215;-59
2022/03/31 13:23:02;;;;;;;4.57;2.50;;;7.80;99.90;;;;;;4851055;29;20269;-58
2022/03/31 13:25:34;;;;;;;3.97;2.53;;;7.70;99.90;;;;;;4851150;29;20209;-57